createdAt,value
2022-10-25T00:18:11.185Z,1125
2022-10-25T00:58:19.278Z,1099
2022-10-25T01:18:19.330Z,1089
2022-10-25T01:38:11.402Z,1085
2022-10-25T01:58:19.414Z,1083
2022-10-25T02:58:19.559Z,1068
2022-10-25T03:58:19.727Z,1043
2022-10-25T04:18:11.774Z,1036
2022-10-25T04:38:11.801Z,1030
2022-10-25T04:58:19.858Z,1022
2022-10-25T05:38:19.951Z,1016
2022-10-25T06:18:20.049Z,1007
2022-10-25T06:38:12.109Z,1003
2022-10-25T06:58:20.158Z,998
2022-10-25T08:18:12.326Z,993
2022-10-25T08:38:20.392Z,991
2022-10-25T09:18:20.482Z,990
2022-10-25T10:18:12.630Z,976
2022-10-25T10:38:12.665Z,976
2022-10-25T10:58:12.722Z,975
2022-10-25T11:18:20.776Z,974
2022-10-25T11:58:12.876Z,967
2022-10-25T12:38:20.938Z,965
2022-10-25T13:38:13.091Z,964
2022-10-25T13:58:21.130Z,960
2022-10-25T14:38:13.212Z,955
2022-10-25T14:58:13.279Z,949
2022-10-25T15:18:21.383Z,940
2022-10-25T15:38:21.363Z,931
2022-10-25T15:58:13.394Z,929
2022-10-25T16:18:21.515Z,933
2022-10-25T16:38:21.516Z,937
2022-10-25T17:18:14.025Z,939
2022-10-25T17:38:13.638Z,939
2022-10-25T17:58:21.690Z,942
2022-10-25T18:18:21.742Z,946
2022-10-25T18:38:15.717Z,945
2022-10-25T18:58:13.820Z,944
2022-10-25T19:18:13.886Z,939
2022-10-25T19:38:13.938Z,940
2022-10-25T19:58:14.010Z,942
2022-10-25T20:18:22.065Z,943
2022-10-25T20:58:14.145Z,939
2022-10-25T21:18:14.199Z,939
2022-10-25T21:38:14.254Z,941
2022-10-25T21:58:22.286Z,943
2022-10-25T22:18:14.354Z,940
2022-10-25T22:38:14.412Z,939
2022-10-25T22:58:22.442Z,937
2022-10-25T23:38:14.555Z,942
2022-10-25T23:58:14.606Z,941
